sensor_id;sensor_type;location;lat;lon;timestamp;pressure;altitude;pressure_sealevel;temperature;humidity
34658;BME280;20865;43.312;27.152;2023-09-12T00:02:18;100599.77;;;23.44;37.57
34658;BME280;20865;43.312;27.152;2023-09-12T00:04:45;100598.00;;;23.43;37.70
34658;BME280;20865;43.312;27.152;2023-09-12T00:07:13;100599.50;;;23.41;37.35
34658;BME280;20865;43.312;27.152;2023-09-12T00:09:41;100599.27;;;23.44;37.20
34658;BME280;20865;43.312;27.152;2023-09-12T00:12:08;100601.73;;;23.42;37.32
34658;BME280;20865;43.312;27.152;2023-09-12T00:14:36;100594.92;;;23.36;37.79
34658;BME280;20865;43.312;27.152;2023-09-12T00:17:04;100593.30;;;23.39;38.15
34658;BME280;20865;43.312;27.152;2023-09-12T00:19:31;100592.92;;;23.38;38.39
34658;BME280;20865;43.312;27.152;2023-09-12T00:21:59;100594.19;;;23.40;38.83
34658;BME280;20865;43.312;27.152;2023-09-12T00:24:27;100584.38;;;23.43;38.74
34658;BME280;20865;43.312;27.152;2023-09-12T00:26:54;100585.50;;;23.46;38.71
34658;BME280;20865;43.312;27.152;2023-09-12T00:29:22;100587.62;;;23.48;38.36
34658;BME280;20865;43.312;27.152;2023-09-12T00:31:49;100585.52;;;23.51;38.08
34658;BME280;20865;43.312;27.152;2023-09-12T00:34:17;100585.13;;;23.45;37.91
34658;BME280;20865;43.312;27.152;2023-09-12T00:36:45;100585.38;;;23.42;37.81
34658;BME280;20865;43.312;27.152;2023-09-12T00:39:12;100587.84;;;23.39;37.96
34658;BME280;20865;43.312;27.152;2023-09-12T00:41:40;100586.61;;;23.38;38.01
34658;BME280;20865;43.312;27.152;2023-09-12T00:44:09;100599.02;;;23.36;38.02
34658;BME280;20865;43.312;27.152;2023-09-12T00:46:38;100603.80;;;23.33;38.31
34658;BME280;20865;43.312;27.152;2023-09-12T00:49:06;100594.77;;;23.32;38.29
34658;BME280;20865;43.312;27.152;2023-09-12T00:51:35;100594.54;;;23.29;38.20
34658;BME280;20865;43.312;27.152;2023-09-12T00:54:04;100589.45;;;23.30;38.25
34658;BME280;20865;43.312;27.152;2023-09-12T00:56:32;100591.31;;;23.30;38.14
34658;BME280;20865;43.312;27.152;2023-09-12T00:59:00;100597.27;;;23.29;37.93
34658;BME280;20865;43.312;27.152;2023-09-12T01:01:28;100596.14;;;23.26;37.94
34658;BME280;20865;43.312;27.152;2023-09-12T01:03:56;100589.82;;;23.26;38.10
34658;BME280;20865;43.312;27.152;2023-09-12T01:06:25;100592.89;;;23.21;38.07
34658;BME280;20865;43.312;27.152;2023-09-12T01:08:54;100590.16;;;23.21;38.03
34658;BME280;20865;43.312;27.152;2023-09-12T01:11:23;100592.27;;;23.18;38.04
34658;BME280;20865;43.312;27.152;2023-09-12T01:13:53;100590.53;;;23.17;38.10
34658;BME280;20865;43.312;27.152;2023-09-12T01:16:20;100595.72;;;23.14;37.82
34658;BME280;20865;43.312;27.152;2023-09-12T01:18:48;100592.59;;;23.08;37.98
34658;BME280;20865;43.312;27.152;2023-09-12T01:21:27;100591.84;;;23.00;38.16
34658;BME280;20865;43.312;27.152;2023-09-12T01:26:36;100598.42;;;23.03;38.47
34658;BME280;20865;43.312;27.152;2023-09-12T01:28:59;100596.30;;;22.95;38.80
34658;BME280;20865;43.312;27.152;2023-09-12T01:31:28;100601.11;;;22.97;38.97
34658;BME280;20865;43.312;27.152;2023-09-12T01:33:57;100595.80;;;22.96;39.15
34658;BME280;20865;43.312;27.152;2023-09-12T01:36:25;100587.13;;;22.96;39.06
34658;BME280;20865;43.312;27.152;2023-09-12T01:38:53;100593.56;;;22.95;39.01
34658;BME280;20865;43.312;27.152;2023-09-12T01:41:20;100595.53;;;22.93;38.96
34658;BME280;20865;43.312;27.152;2023-09-12T01:43:49;100592.80;;;22.93;38.83
34658;BME280;20865;43.312;27.152;2023-09-12T01:46:18;100593.80;;;22.92;38.67
34658;BME280;20865;43.312;27.152;2023-09-12T01:48:48;100590.38;;;22.83;38.26
34658;BME280;20865;43.312;27.152;2023-09-12T01:51:18;100589.02;;;22.83;38.38
34658;BME280;20865;43.312;27.152;2023-09-12T01:53:47;100589.87;;;22.78;38.39
34658;BME280;20865;43.312;27.152;2023-09-12T01:56:16;100587.75;;;22.76;38.36
34658;BME280;20865;43.312;27.152;2023-09-12T01:58:45;100587.12;;;22.72;38.49
34658;BME280;20865;43.312;27.152;2023-09-12T02:01:13;100586.39;;;22.70;38.59
34658;BME280;20865;43.312;27.152;2023-09-12T02:03:41;100589.97;;;22.71;38.49
34658;BME280;20865;43.312;27.152;2023-09-12T02:06:09;100590.07;;;22.69;38.46
34658;BME280;20865;43.312;27.152;2023-09-12T02:08:36;100584.48;;;22.65;38.39
34658;BME280;20865;43.312;27.152;2023-09-12T02:11:04;100590.16;;;22.62;38.15
34658;BME280;20865;43.312;27.152;2023-09-12T02:13:31;100585.34;;;22.60;38.22
34658;BME280;20865;43.312;27.152;2023-09-12T02:16:00;100586.39;;;22.52;38.21
34658;BME280;20865;43.312;27.152;2023-09-12T02:18:29;100585.27;;;22.49;37.94
34658;BME280;20865;43.312;27.152;2023-09-12T02:20:58;100589.70;;;22.44;37.99
34658;BME280;20865;43.312;27.152;2023-09-12T02:23:26;100582.89;;;22.39;38.08
34658;BME280;20865;43.312;27.152;2023-09-12T02:25:54;100584.34;;;22.37;37.88
34658;BME280;20865;43.312;27.152;2023-09-12T02:28:23;100583.11;;;22.35;37.83
34658;BME280;20865;43.312;27.152;2023-09-12T02:30:51;100585.02;;;22.28;37.82
34658;BME280;20865;43.312;27.152;2023-09-12T02:33:19;100590.94;;;22.22;37.77
34658;BME280;20865;43.312;27.152;2023-09-12T02:35:46;100588.94;;;22.18;37.89
34658;BME280;20865;43.312;27.152;2023-09-12T02:38:14;100587.35;;;22.08;38.00
34658;BME280;20865;43.312;27.152;2023-09-12T02:40:41;100583.64;;;22.09;38.09
34658;BME280;20865;43.312;27.152;2023-09-12T02:43:09;100590.14;;;22.01;38.19
34658;BME280;20865;43.312;27.152;2023-09-12T02:45:37;100588.06;;;22.05;38.13
34658;BME280;20865;43.312;27.152;2023-09-12T02:48:05;100588.06;;;22.05;38.04
34658;BME280;20865;43.312;27.152;2023-09-12T02:50:33;100586.56;;;22.01;38.14
34658;BME280;20865;43.312;27.152;2023-09-12T02:53:00;100591.94;;;21.95;38.10
34658;BME280;20865;43.312;27.152;2023-09-12T02:55:28;100585.64;;;21.95;37.79
34658;BME280;20865;43.312;27.152;2023-09-12T02:57:56;100591.58;;;21.94;37.99
34658;BME280;20865;43.312;27.152;2023-09-12T03:00:23;100592.87;;;21.88;38.10
34658;BME280;20865;43.312;27.152;2023-09-12T03:02:51;100592.78;;;21.90;37.94
34658;BME280;20865;43.312;27.152;2023-09-12T03:05:18;100594.73;;;21.88;37.57
34658;BME280;20865;43.312;27.152;2023-09-12T03:07:46;100590.38;;;21.85;37.36
34658;BME280;20865;43.312;27.152;2023-09-12T03:10:14;100590.53;;;21.89;37.54
34658;BME280;20865;43.312;27.152;2023-09-12T03:12:42;100598.22;;;21.90;37.64
34658;BME280;20865;43.312;27.152;2023-09-12T03:15:10;100599.68;;;21.88;37.88
34658;BME280;20865;43.312;27.152;2023-09-12T03:17:38;100607.96;;;21.74;38.40
34658;BME280;20865;43.312;27.152;2023-09-12T03:20:06;100607.16;;;21.67;38.55
34658;BME280;20865;43.312;27.152;2023-09-12T03:22:35;100602.47;;;21.69;38.72
34658;BME280;20865;43.312;27.152;2023-09-12T03:25:04;100601.08;;;21.63;38.65
34658;BME280;20865;43.312;27.152;2023-09-12T03:27:32;100600.58;;;21.63;38.83
34658;BME280;20865;43.312;27.152;2023-09-12T03:30:00;100598.94;;;21.61;38.71
34658;BME280;20865;43.312;27.152;2023-09-12T03:32:27;100605.52;;;21.64;38.75
34658;BME280;20865;43.312;27.152;2023-09-12T03:34:55;100602.16;;;21.60;38.70
34658;BME280;20865;43.312;27.152;2023-09-12T03:37:22;100607.72;;;21.59;38.72
34658;BME280;20865;43.312;27.152;2023-09-12T03:39:52;100609.16;;;21.57;38.81
34658;BME280;20865;43.312;27.152;2023-09-12T03:42:19;100606.45;;;21.57;38.95
34658;BME280;20865;43.312;27.152;2023-09-12T03:44:47;100615.44;;;21.52;38.77
34658;BME280;20865;43.312;27.152;2023-09-12T03:47:15;100619.11;;;21.51;38.65
34658;BME280;20865;43.312;27.152;2023-09-12T03:49:43;100619.72;;;21.49;38.62
34658;BME280;20865;43.312;27.152;2023-09-12T03:52:11;100626.61;;;21.48;38.95
34658;BME280;20865;43.312;27.152;2023-09-12T03:54:38;100617.22;;;21.46;39.08
34658;BME280;20865;43.312;27.152;2023-09-12T03:57:06;100617.22;;;21.46;39.05
34658;BME280;20865;43.312;27.152;2023-09-12T03:59:33;100623.23;;;21.44;39.08
34658;BME280;20865;43.312;27.152;2023-09-12T04:02:02;100620.91;;;21.58;38.88
34658;BME280;20865;43.312;27.152;2023-09-12T04:04:30;100630.82;;;21.59;38.80
34658;BME280;20865;43.312;27.152;2023-09-12T04:06:58;100631.09;;;21.49;38.88
34658;BME280;20865;43.312;27.152;2023-09-12T04:09:25;100626.94;;;21.43;38.65
34658;BME280;20865;43.312;27.152;2023-09-12T04:11:54;100633.64;;;21.45;38.71
34658;BME280;20865;43.312;27.152;2023-09-12T04:14:22;100630.92;;;21.45;38.57
34658;BME280;20865;43.312;27.152;2023-09-12T04:16:49;100628.20;;;21.45;38.46
34658;BME280;20865;43.312;27.152;2023-09-12T04:19:19;100633.73;;;21.43;38.46
34658;BME280;20865;43.312;27.152;2023-09-12T04:21:46;100627.92;;;21.42;38.57
34658;BME280;20865;43.312;27.152;2023-09-12T04:24:14;100634.10;;;21.44;38.51
34658;BME280;20865;43.312;27.152;2023-09-12T04:26:43;100631.23;;;21.40;38.73
34658;BME280;20865;43.312;27.152;2023-09-12T04:29:11;100630.92;;;21.45;38.90
34658;BME280;20865;43.312;27.152;2023-09-12T04:31:39;100635.75;;;21.47;39.40
34658;BME280;20865;43.312;27.152;2023-09-12T04:34:06;100634.76;;;21.48;39.90
34658;BME280;20865;43.312;27.152;2023-09-12T04:36:34;100633.03;;;21.47;40.18
34658;BME280;20865;43.312;27.152;2023-09-12T04:39:02;100634.73;;;21.55;40.12
34658;BME280;20865;43.312;27.152;2023-09-12T04:41:29;100639.06;;;21.57;39.95
34658;BME280;20865;43.312;27.152;2023-09-12T04:43:58;100647.28;;;21.63;40.03
34658;BME280;20865;43.312;27.152;2023-09-12T04:46:27;100645.01;;;21.70;40.01
34658;BME280;20865;43.312;27.152;2023-09-12T04:48:55;100646.19;;;21.78;40.12
34658;BME280;20865;43.312;27.152;2023-09-12T04:51:23;100643.68;;;21.88;40.03
34658;BME280;20865;43.312;27.152;2023-09-12T04:53:50;100645.34;;;21.96;39.95
34658;BME280;20865;43.312;27.152;2023-09-12T04:56:18;100637.74;;;22.01;39.95
34658;BME280;20865;43.312;27.152;2023-09-12T04:58:46;100641.81;;;22.14;39.99
34658;BME280;20865;43.312;27.152;2023-09-12T05:01:14;100641.79;;;22.27;40.08
34658;BME280;20865;43.312;27.152;2023-09-12T05:03:43;100639.55;;;22.39;40.06
34658;BME280;20865;43.312;27.152;2023-09-12T05:06:12;100639.97;;;22.51;40.12
34658;BME280;20865;43.312;27.152;2023-09-12T05:08:39;100641.39;;;22.63;40.01
34658;BME280;20865;43.312;27.152;2023-09-12T05:11:07;100644.44;;;22.76;39.97
34658;BME280;20865;43.312;27.152;2023-09-12T05:13:35;100651.00;;;22.92;39.72
34658;BME280;20865;43.312;27.152;2023-09-12T05:16:04;100649.31;;;23.08;39.58
34658;BME280;20865;43.312;27.152;2023-09-12T05:18:31;100657.92;;;23.20;39.51
34658;BME280;20865;43.312;27.152;2023-09-12T05:20:59;100646.22;;;23.37;39.57
34658;BME280;20865;43.312;27.152;2023-09-12T05:23:27;100640.05;;;23.51;39.58
34658;BME280;20865;43.312;27.152;2023-09-12T05:25:55;100641.47;;;23.68;39.46
34658;BME280;20865;43.312;27.152;2023-09-12T05:28:23;100646.95;;;23.85;39.37
34658;BME280;20865;43.312;27.152;2023-09-12T05:30:51;100643.59;;;24.04;39.34
34658;BME280;20865;43.312;27.152;2023-09-12T05:33:18;100643.59;;;24.21;39.21
34658;BME280;20865;43.312;27.152;2023-09-12T05:35:46;100642.96;;;24.40;39.12
34658;BME280;20865;43.312;27.152;2023-09-12T05:38:13;100635.84;;;24.60;38.95
34658;BME280;20865;43.312;27.152;2023-09-12T05:40:41;100642.73;;;24.81;38.81
34658;BME280;20865;43.312;27.152;2023-09-12T05:43:09;100643.79;;;25.01;38.46
34658;BME280;20865;43.312;27.152;2023-09-12T05:45:36;100642.59;;;25.20;38.06
34658;BME280;20865;43.312;27.152;2023-09-12T05:48:04;100643.35;;;25.43;37.70
34658;BME280;20865;43.312;27.152;2023-09-12T05:50:32;100641.20;;;25.68;37.39
34658;BME280;20865;43.312;27.152;2023-09-12T05:53:00;100635.25;;;25.83;37.15
34658;BME280;20865;43.312;27.152;2023-09-12T05:55:27;100640.05;;;26.06;36.73
34658;BME280;20865;43.312;27.152;2023-09-12T05:57:55;100641.50;;;26.26;36.53
34658;BME280;20865;43.312;27.152;2023-09-12T06:00:23;100639.74;;;26.40;36.19
34658;BME280;20865;43.312;27.152;2023-09-12T06:02:51;100633.97;;;26.58;36.00
34658;BME280;20865;43.312;27.152;2023-09-12T06:05:18;100631.75;;;26.77;36.01
34658;BME280;20865;43.312;27.152;2023-09-12T06:07:46;100636.75;;;26.97;35.86
34658;BME280;20865;43.312;27.152;2023-09-12T06:10:14;100640.23;;;27.19;35.63
34658;BME280;20865;43.312;27.152;2023-09-12T06:12:41;100648.23;;;27.36;34.97
34658;BME280;20865;43.312;27.152;2023-09-12T06:15:10;100640.86;;;27.46;34.77
34658;BME280;20865;43.312;27.152;2023-09-12T06:17:37;100635.12;;;27.63;34.70
34658;BME280;20865;43.312;27.152;2023-09-12T06:20:06;100641.20;;;27.76;34.57
34658;BME280;20865;43.312;27.152;2023-09-12T06:22:34;100647.06;;;27.91;34.62
34658;BME280;20865;43.312;27.152;2023-09-12T06:25:02;100647.43;;;28.06;34.80
34658;BME280;20865;43.312;27.152;2023-09-12T06:27:30;100658.08;;;28.18;34.75
34658;BME280;20865;43.312;27.152;2023-09-12T06:29:58;100658.09;;;28.32;34.33
34658;BME280;20865;43.312;27.152;2023-09-12T06:32:25;100652.03;;;28.38;34.37
34658;BME280;20865;43.312;27.152;2023-09-12T06:34:53;100656.63;;;28.52;34.43
34658;BME280;20865;43.312;27.152;2023-09-12T06:37:21;100660.86;;;28.60;34.32
34658;BME280;20865;43.312;27.152;2023-09-12T06:39:51;100657.97;;;28.79;34.36
34658;BME280;20865;43.312;27.152;2023-09-12T06:42:19;100662.20;;;28.87;33.97
34658;BME280;20865;43.312;27.152;2023-09-12T06:44:46;100659.28;;;29.03;34.31
34658;BME280;20865;43.312;27.152;2023-09-12T06:47:14;100658.20;;;29.17;34.37
34658;BME280;20865;43.312;27.152;2023-09-12T06:49:42;100664.17;;;29.31;33.88
34658;BME280;20865;43.312;27.152;2023-09-12T06:52:09;100661.68;;;29.41;33.60
34658;BME280;20865;43.312;27.152;2023-09-12T06:54:37;100665.03;;;29.53;34.15
34658;BME280;20865;43.312;27.152;2023-09-12T06:57:05;100664.31;;;29.65;33.54
34658;BME280;20865;43.312;27.152;2023-09-12T06:59:32;100665.75;;;29.77;33.74
34658;BME280;20865;43.312;27.152;2023-09-12T07:02:00;100660.48;;;29.88;33.51
34658;BME280;20865;43.312;27.152;2023-09-12T07:04:29;100666.91;;;29.93;33.29
34658;BME280;20865;43.312;27.152;2023-09-12T07:06:57;100671.28;;;30.07;33.67
34658;BME280;20865;43.312;27.152;2023-09-12T07:09:25;100666.13;;;30.12;33.33
34658;BME280;20865;43.312;27.152;2023-09-12T07:11:53;100667.95;;;30.22;33.86
34658;BME280;20865;43.312;27.152;2023-09-12T07:14:20;100668.16;;;30.28;34.05
34658;BME280;20865;43.312;27.152;2023-09-12T07:16:50;100667.17;;;30.37;33.43
34658;BME280;20865;43.312;27.152;2023-09-12T07:19:17;100664.30;;;30.55;33.67
34658;BME280;20865;43.312;27.152;2023-09-12T07:21:45;100669.21;;;30.78;33.43
34658;BME280;20865;43.312;27.152;2023-09-12T07:24:13;100659.23;;;30.85;33.46
34658;BME280;20865;43.312;27.152;2023-09-12T07:26:40;100664.45;;;31.00;33.34
34658;BME280;20865;43.312;27.152;2023-09-12T07:29:08;100659.79;;;31.09;33.44
34658;BME280;20865;43.312;27.152;2023-09-12T07:31:36;100665.33;;;31.25;32.48
34658;BME280;20865;43.312;27.152;2023-09-12T07:34:03;100663.98;;;31.34;32.37
34658;BME280;20865;43.312;27.152;2023-09-12T07:36:31;100666.91;;;31.44;32.21
34658;BME280;20865;43.312;27.152;2023-09-12T07:38:59;100662.42;;;31.64;32.34
34658;BME280;20865;43.312;27.152;2023-09-12T07:41:26;100660.14;;;31.75;32.15
34658;BME280;20865;43.312;27.152;2023-09-12T07:43:54;100661.52;;;31.79;30.83
34658;BME280;20865;43.312;27.152;2023-09-12T07:46:22;100661.55;;;31.88;31.13
34658;BME280;20865;43.312;27.152;2023-09-12T07:48:49;100659.61;;;31.96;31.20
34658;BME280;20865;43.312;27.152;2023-09-12T07:51:17;100656.48;;;32.12;31.20
34658;BME280;20865;43.312;27.152;2023-09-12T07:53:45;100654.95;;;32.05;31.03
34658;BME280;20865;43.312;27.152;2023-09-12T07:58:39;100650.94;;;32.16;30.86
34658;BME280;20865;43.312;27.152;2023-09-12T08:01:07;100652.05;;;32.38;31.18
34658;BME280;20865;43.312;27.152;2023-09-12T08:03:37;100639.95;;;32.47;30.92
34658;BME280;20865;43.312;27.152;2023-09-12T08:06:06;100639.84;;;32.63;30.61
34658;BME280;20865;43.312;27.152;2023-09-12T08:08:33;100636.49;;;32.76;30.55
34658;BME280;20865;43.312;27.152;2023-09-12T08:11:01;100632.91;;;32.71;30.50
34658;BME280;20865;43.312;27.152;2023-09-12T08:13:30;100635.97;;;32.77;30.12
34658;BME280;20865;43.312;27.152;2023-09-12T08:15:57;100636.09;;;32.83;30.66
34658;BME280;20865;43.312;27.152;2023-09-12T08:18:28;100632.41;;;32.99;30.06
34658;BME280;20865;43.312;27.152;2023-09-12T08:20:56;100624.89;;;33.08;29.91
34658;BME280;20865;43.312;27.152;2023-09-12T08:23:23;100640.52;;;33.24;29.33
34658;BME280;20865;43.312;27.152;2023-09-12T08:25:51;100632.98;;;33.32;29.06
34658;BME280;20865;43.312;27.152;2023-09-12T08:28:18;100634.55;;;33.54;27.93
34658;BME280;20865;43.312;27.152;2023-09-12T08:30:46;100627.47;;;33.70;27.37
34658;BME280;20865;43.312;27.152;2023-09-12T08:33:14;100629.38;;;33.70;26.11
34658;BME280;20865;43.312;27.152;2023-09-12T08:35:42;100627.47;;;33.70;27.08
34658;BME280;20865;43.312;27.152;2023-09-12T08:38:09;100627.42;;;33.74;25.67
34658;BME280;20865;43.312;27.152;2023-09-12T08:40:38;100626.29;;;33.98;27.05
34658;BME280;20865;43.312;27.152;2023-09-12T08:43:06;100627.95;;;34.07;25.94
34658;BME280;20865;43.312;27.152;2023-09-12T08:45:34;100628.23;;;34.12;26.78
34658;BME280;20865;43.312;27.152;2023-09-12T08:48:04;100618.23;;;34.22;26.34
34658;BME280;20865;43.312;27.152;2023-09-12T08:50:33;100616.94;;;34.29;26.19
34658;BME280;20865;43.312;27.152;2023-09-12T08:53:00;100625.75;;;34.18;24.96
34658;BME280;20865;43.312;27.152;2023-09-12T08:55:29;100627.66;;;34.02;24.46
34658;BME280;20865;43.312;27.152;2023-09-12T08:58:00;100617.06;;;34.21;25.39
34658;BME280;20865;43.312;27.152;2023-09-12T09:00:30;100612.66;;;34.11;24.47
34658;BME280;20865;43.312;27.152;2023-09-12T09:02:58;100610.21;;;34.12;24.38
34658;BME280;20865;43.312;27.152;2023-09-12T09:05:27;100618.50;;;34.27;23.93
34658;BME280;20865;43.312;27.152;2023-09-12T09:07:56;100619.50;;;34.45;24.71
34658;BME280;20865;43.312;27.152;2023-09-12T09:10:24;100615.78;;;34.53;23.88
34658;BME280;20865;43.312;27.152;2023-09-12T09:12:53;100616.19;;;34.60;24.55
34658;BME280;20865;43.312;27.152;2023-09-12T09:15:28;100619.22;;;34.66;23.38
34658;BME280;20865;43.312;27.152;2023-09-12T09:17:57;100615.98;;;34.47;23.20
34658;BME280;20865;43.312;27.152;2023-09-12T09:20:31;100615.08;;;34.25;23.58
34658;BME280;20865;43.312;27.152;2023-09-12T09:23:04;100610.72;;;34.42;23.86
34658;BME280;20865;43.312;27.152;2023-09-12T09:25:35;100616.82;;;34.37;23.76
34658;BME280;20865;43.312;27.152;2023-09-12T09:28:17;100618.03;;;34.24;24.06
34658;BME280;20865;43.312;27.152;2023-09-12T09:30:46;100610.87;;;34.29;24.25
34658;BME280;20865;43.312;27.152;2023-09-12T09:33:15;100607.23;;;34.29;24.37
34658;BME280;20865;43.312;27.152;2023-09-12T09:35:50;100613.72;;;34.36;24.28
34658;BME280;20865;43.312;27.152;2023-09-12T09:38:14;100608.73;;;34.46;24.33
34658;BME280;20865;43.312;27.152;2023-09-12T09:40:43;100602.00;;;34.59;24.01
34658;BME280;20865;43.312;27.152;2023-09-12T09:43:12;100607.50;;;34.49;23.49
34658;BME280;20865;43.312;27.152;2023-09-12T09:45:45;100602.81;;;34.34;23.28
34658;BME280;20865;43.312;27.152;2023-09-12T09:48:22;100604.91;;;34.22;23.13
34658;BME280;20865;43.312;27.152;2023-09-12T09:50:52;100600.36;;;34.50;23.89
34658;BME280;20865;43.312;27.152;2023-09-12T09:53:28;100599.34;;;34.73;23.70
34658;BME280;20865;43.312;27.152;2023-09-12T09:56:10;100596.79;;;34.93;24.13
34658;BME280;20865;43.312;27.152;2023-09-12T10:01:18;100595.86;;;34.75;23.29
34658;BME280;20865;43.312;27.152;2023-09-12T10:03:52;100600.77;;;34.94;23.49
34658;BME280;20865;43.312;27.152;2023-09-12T10:06:21;100597.18;;;35.00;23.85
34658;BME280;20865;43.312;27.152;2023-09-12T10:08:54;100596.88;;;35.10;23.33
34658;BME280;20865;43.312;27.152;2023-09-12T10:11:24;100591.79;;;35.14;23.29
34658;BME280;20865;43.312;27.152;2023-09-12T10:13:57;100594.45;;;35.22;23.10
34658;BME280;20865;43.312;27.152;2023-09-12T10:16:32;100600.94;;;35.36;22.98
34658;BME280;20865;43.312;27.152;2023-09-12T10:19:25;100599.05;;;35.36;22.70
34658;BME280;20865;43.312;27.152;2023-09-12T10:22:21;100596.67;;;35.33;23.27
34658;BME280;20865;43.312;27.152;2023-09-12T10:24:50;100592.96;;;35.37;22.37
34658;BME280;20865;43.312;27.152;2023-09-12T10:27:20;100588.42;;;35.07;22.03
34658;BME280;20865;43.312;27.152;2023-09-12T10:29:48;100580.35;;;35.23;22.77
34658;BME280;20865;43.312;27.152;2023-09-12T10:32:18;100575.45;;;35.36;22.51
34658;BME280;20865;43.312;27.152;2023-09-12T10:34:49;100572.25;;;35.50;22.26
34658;BME280;20865;43.312;27.152;2023-09-12T10:37:17;100575.38;;;35.51;21.90
34658;BME280;20865;43.312;27.152;2023-09-12T10:39:46;100575.02;;;35.39;22.36
34658;BME280;20865;43.312;27.152;2023-09-12T10:42:17;100574.11;;;35.53;22.29
34658;BME280;20865;43.312;27.152;2023-09-12T10:44:47;100563.46;;;35.57;21.97
34658;BME280;20865;43.312;27.152;2023-09-12T10:47:15;100570.45;;;35.64;22.08
34658;BME280;20865;43.312;27.152;2023-09-12T10:49:46;100568.42;;;35.51;22.09
34658;BME280;20865;43.312;27.152;2023-09-12T10:52:27;100566.28;;;35.42;21.75
34658;BME280;20865;43.312;27.152;2023-09-12T10:54:55;100567.09;;;35.58;21.98
34658;BME280;20865;43.312;27.152;2023-09-12T10:57:23;100553.97;;;35.62;22.98
34658;BME280;20865;43.312;27.152;2023-09-12T11:02:40;100559.93;;;35.48;21.44
34658;BME280;20865;43.312;27.152;2023-09-12T11:08:00;100552.58;;;35.62;22.19
34658;BME280;20865;43.312;27.152;2023-09-12T11:10:30;100547.30;;;35.57;22.26
34658;BME280;20865;43.312;27.152;2023-09-12T11:12:58;100548.45;;;35.69;22.30
34658;BME280;20865;43.312;27.152;2023-09-12T11:15:28;100549.00;;;35.68;22.50
34658;BME280;20865;43.312;27.152;2023-09-12T11:18:06;100544.28;;;35.51;21.86
34658;BME280;20865;43.312;27.152;2023-09-12T11:21:00;100543.09;;;35.39;22.01
34658;BME280;20865;43.312;27.152;2023-09-12T11:23:31;100538.73;;;35.51;22.75
34658;BME280;20865;43.312;27.152;2023-09-12T11:26:04;100534.39;;;35.60;22.90
34658;BME280;20865;43.312;27.152;2023-09-12T11:28:33;100526.73;;;35.62;21.42
34658;BME280;20865;43.312;27.152;2023-09-12T11:31:01;100528.78;;;35.64;22.52
34658;BME280;20865;43.312;27.152;2023-09-12T11:33:28;100530.18;;;35.70;22.08
34658;BME280;20865;43.312;27.152;2023-09-12T11:35:57;100525.87;;;35.78;22.41
34658;BME280;20865;43.312;27.152;2023-09-12T11:38:30;100526.76;;;35.86;22.30
34658;BME280;20865;43.312;27.152;2023-09-12T11:40:59;100529.67;;;35.95;22.24
34658;BME280;20865;43.312;27.152;2023-09-12T11:43:27;100523.38;;;35.97;22.37
34658;BME280;20865;43.312;27.152;2023-09-12T11:45:56;100521.27;;;35.99;22.13
34658;BME280;20865;43.312;27.152;2023-09-12T11:48:24;100512.20;;;36.01;21.54
34658;BME280;20865;43.312;27.152;2023-09-12T11:50:54;100510.31;;;35.91;21.12
34658;BME280;20865;43.312;27.152;2023-09-12T11:53:23;100506.17;;;35.97;21.89
34658;BME280;20865;43.312;27.152;2023-09-12T11:55:54;100507.53;;;35.91;22.54
34658;BME280;20865;43.312;27.152;2023-09-12T11:58:22;100499.55;;;35.92;21.96
34658;BME280;20865;43.312;27.152;2023-09-12T12:00:54;100495.22;;;35.83;21.72
34658;BME280;20865;43.312;27.152;2023-09-12T12:03:24;100503.30;;;35.77;21.33
34658;BME280;20865;43.312;27.152;2023-09-12T12:05:53;100493.41;;;35.86;22.00
34658;BME280;20865;43.312;27.152;2023-09-12T12:08:21;100491.62;;;35.89;22.46
34658;BME280;20865;43.312;27.152;2023-09-12T12:10:52;100489.47;;;35.91;22.43
34658;BME280;20865;43.312;27.152;2023-09-12T12:13:21;100480.59;;;35.91;22.32
34658;BME280;20865;43.312;27.152;2023-09-12T12:15:49;100481.48;;;35.92;22.21
34658;BME280;20865;43.312;27.152;2023-09-12T12:18:17;100481.04;;;35.95;22.48
34658;BME280;20865;43.312;27.152;2023-09-12T12:20:45;100479.14;;;35.95;22.10
34658;BME280;20865;43.312;27.152;2023-09-12T12:23:13;100477.99;;;35.59;21.77
34658;BME280;20865;43.312;27.152;2023-09-12T12:25:40;100471.73;;;35.50;21.90
34658;BME280;20865;43.312;27.152;2023-09-12T12:28:08;100475.47;;;35.64;22.17
34658;BME280;20865;43.312;27.152;2023-09-12T12:30:36;100470.36;;;35.68;22.41
34658;BME280;20865;43.312;27.152;2023-09-12T12:33:11;100469.25;;;35.62;22.68
34658;BME280;20865;43.312;27.152;2023-09-12T12:35:38;100474.06;;;35.47;22.06
34658;BME280;20865;43.312;27.152;2023-09-12T12:38:06;100473.27;;;35.42;22.63
34658;BME280;20865;43.312;27.152;2023-09-12T12:40:40;100470.08;;;35.28;21.94
34658;BME280;20865;43.312;27.152;2023-09-12T12:43:04;100470.57;;;35.21;22.00
34658;BME280;20865;43.312;27.152;2023-09-12T12:45:32;100471.84;;;35.01;22.34
34658;BME280;20865;43.312;27.152;2023-09-12T12:48:01;100461.93;;;35.20;22.94
34658;BME280;20865;43.312;27.152;2023-09-12T12:50:29;100462.24;;;35.21;22.57
34658;BME280;20865;43.312;27.152;2023-09-12T12:52:57;100467.87;;;35.17;22.45
34658;BME280;20865;43.312;27.152;2023-09-12T12:55:26;100467.98;;;35.30;22.77
34658;BME280;20865;43.312;27.152;2023-09-12T12:57:54;100462.95;;;35.29;21.67
34658;BME280;20865;43.312;27.152;2023-09-12T13:00:21;100460.73;;;35.36;22.36
34658;BME280;20865;43.312;27.152;2023-09-12T13:02:50;100456.91;;;35.37;22.65